Time;durP1;ratioP1;P1;durP2;ratioP2;P2;SDS_P1;SDS_P2;PMS_P1;PMS_P2;Temp;Humidity;BMP_temperature;BMP_pressure;BME280_temperature;BME280_humidity;BME280_pressure;Samples;Min_cycle;Max_cycle;Signal;HPM_P1;HPM_P2
2021/11/19 00:00:42;;;;;;;13.47;9.47;;;2.20;99.90;;;;;;4995311;28;20299;-78
2021/11/19 00:03:09;;;;;;;10.23;9.17;;;2.60;99.90;;;;;;4994368;28;20211;-77
2021/11/19 00:05:34;;;;;;;10.50;9.50;;;2.80;99.90;;;;;;4995344;28;20214;-77
2021/11/19 00:08:00;;;;;;;11.07;9.70;;;2.80;99.90;;;;;;4995113;28;20649;-77
2021/11/19 00:10:27;;;;;;;10.13;9.13;;;2.90;99.90;;;;;;4995178;28;20664;-77
2021/11/19 00:12:53;;;;;;;10.00;9.00;;;2.70;99.90;;;;;;4995314;28;20689;-77
2021/11/19 00:15:19;;;;;;;13.27;9.67;;;2.80;99.90;;;;;;4994971;28;20216;-77
2021/11/19 00:17:45;;;;;;;12.03;9.30;;;1.90;99.90;;;;;;4993840;28;20549;-78
2021/11/19 00:20:15;;;;;;;11.93;9.67;;;2.60;99.90;;;;;;4993599;28;20183;-77
2021/11/19 00:22:42;;;;;;;11.97;9.63;;;2.50;99.90;;;;;;4993079;28;20169;-76
2021/11/19 00:25:09;;;;;;;11.67;9.17;;;1.40;99.90;;;;;;4994543;28;20294;-77
2021/11/19 00:27:37;;;;;;;9.30;8.33;;;2.70;99.90;;;;;;4994939;28;20181;-77
2021/11/19 00:30:07;;;;;;;12.37;8.70;;;2.70;99.90;;;;;;4993557;28;20179;-77
2021/11/19 00:32:33;;;;;;;11.17;8.83;;;1.70;99.90;;;;;;4994823;28;20219;-77
2021/11/19 00:34:58;;;;;;;11.10;9.30;;;2.10;99.90;;;;;;4993252;28;20630;-77
2021/11/19 00:37:24;;;;;;;9.10;8.20;;;2.40;99.90;;;;;;4994661;28;20520;-77
2021/11/19 00:39:50;;;;;;;13.20;9.10;;;2.50;99.90;;;;;;4994753;28;20171;-77
2021/11/19 00:42:15;;;;;;;11.33;8.90;;;2.00;99.90;;;;;;4994640;28;20179;-77
2021/11/19 00:44:41;;;;;;;11.43;9.00;;;1.60;99.90;;;;;;4994573;28;20192;-77
2021/11/19 00:47:08;;;;;;;11.47;9.57;;;1.50;99.90;;;;;;4994543;28;20168;-77
2021/11/19 00:49:36;;;;;;;11.73;9.23;;;2.30;99.90;;;;;;4994597;28;20255;-77
2021/11/19 00:52:03;;;;;;;10.03;9.00;;;2.10;99.90;;;;;;4994720;28;20180;-77
2021/11/19 00:54:30;;;;;;;10.73;9.10;;;1.40;99.90;;;;;;4993225;28;20198;-78
2021/11/19 00:57:10;;;;;;;10.70;9.37;;;2.30;99.90;;;;;;4994679;28;20199;-77
2021/11/19 00:59:38;;;;;;;11.53;9.70;;;2.10;99.90;;;;;;4993227;28;20648;-78
2021/11/19 01:02:07;;;;;;;10.93;9.17;;;1.60;99.90;;;;;;4994508;28;20227;-77
2021/11/19 01:04:34;;;;;;;10.67;9.03;;;1.90;99.90;;;;;;4994323;28;20196;-77
2021/11/19 01:07:01;;;;;;;11.33;9.60;;;2.00;99.90;;;;;;4993891;28;20163;-77
2021/11/19 01:09:30;;;;;;;9.50;8.60;;;1.70;99.90;;;;;;4993411;28;20260;-78
2021/11/19 01:11:58;;;;;;;11.53;9.87;;;1.70;99.90;;;;;;4993658;28;20664;-78
2021/11/19 01:14:31;;;;;;;11.67;9.63;;;2.00;99.90;;;;;;4993460;28;20687;-78
2021/11/19 01:17:01;;;;;;;11.13;9.17;;;1.60;99.90;;;;;;4993829;28;20178;-78
2021/11/19 01:19:32;;;;;;;12.57;9.20;;;2.00;99.90;;;;;;4994113;28;20172;-78
2021/11/19 01:22:08;;;;;;;11.50;9.47;;;1.10;99.90;;;;;;4993829;28;20183;-78
2021/11/19 01:24:35;;;;;;;10.73;9.30;;;1.00;99.90;;;;;;4994912;28;20724;-78
2021/11/19 01:27:01;;;;;;;12.20;9.50;;;1.70;99.90;;;;;;4993744;28;20592;-77
2021/11/19 01:29:27;;;;;;;12.83;9.77;;;1.20;99.90;;;;;;4995157;28;20170;-78
2021/11/19 01:31:58;;;;;;;12.07;10.17;;;1.40;99.90;;;;;;4995276;28;20267;-78
2021/11/19 01:34:25;;;;;;;11.20;9.93;;;1.10;99.90;;;;;;5021446;23;20199;-72
2021/11/19 01:36:51;;;;;;;11.03;9.10;;;0.60;99.90;;;;;;5012867;28;20253;-73
2021/11/19 01:39:19;;;;;;;10.93;9.67;;;0.70;99.90;;;;;;5015720;28;20646;-74
2021/11/19 01:41:49;;;;;;;12.23;9.50;;;0.90;99.90;;;;;;5015936;28;20171;-73
2021/11/19 01:44:26;;;;;;;10.23;9.07;;;1.00;99.90;;;;;;5017205;28;20176;-74
2021/11/19 01:46:53;;;;;;;11.07;9.17;;;0.90;99.90;;;;;;5017234;28;20305;-73
2021/11/19 01:49:20;;;;;;;12.27;10.03;;;0.90;99.90;;;;;;5016995;28;20190;-73
2021/11/19 01:52:08;;;;;;;11.10;9.33;;;0.70;99.90;;;;;;5016952;28;20186;-73
2021/11/19 01:54:45;;;;;;;11.60;9.50;;;0.60;99.90;;;;;;5016057;28;20245;-74
2021/11/19 01:57:31;;;;;;;12.77;9.03;;;0.70;99.90;;;;;;5016649;28;20275;-73
2021/11/19 02:00:11;;;;;;;11.70;8.90;;;0.80;99.90;;;;;;5016689;28;20203;-74
2021/11/19 02:02:41;;;;;;;12.70;9.30;;;0.80;99.90;;;;;;5014429;28;20182;-75
2021/11/19 02:05:24;;;;;;;10.40;9.40;;;0.80;99.90;;;;;;5006311;28;20202;-74
2021/11/19 02:07:55;;;;;;;10.40;8.93;;;0.80;99.90;;;;;;5014278;28;20717;-74
2021/11/19 02:10:32;;;;;;;10.07;8.97;;;0.90;99.90;;;;;;4999916;28;20200;-73
2021/11/19 02:13:33;;;;;;;12.33;8.77;;;1.00;99.90;;;;;;5016075;28;20181;-73
2021/11/19 02:16:04;;;;;;;10.50;9.23;;;1.00;99.90;;;;;;4972859;28;20701;-74
2021/11/19 02:18:57;;;;;;;9.50;8.50;;;1.10;99.90;;;;;;5013470;28;20552;-73
2021/11/19 02:21:34;;;;;;;9.03;8.13;;;1.10;99.90;;;;;;5003881;28;20180;-73
2021/11/19 02:24:13;;;;;;;10.17;8.37;;;1.20;99.90;;;;;;5005658;28;20538;-73
2021/11/19 02:26:44;;;;;;;9.07;8.17;;;1.30;99.90;;;;;;5016163;28;20665;-74
2021/11/19 02:29:10;;;;;;;9.90;8.77;;;1.30;99.90;;;;;;5016471;28;20637;-73
2021/11/19 02:31:51;;;;;;;11.67;8.97;;;1.30;99.90;;;;;;5016301;28;20267;-73
2021/11/19 02:34:18;;;;;;;12.00;9.47;;;1.40;99.90;;;;;;5016246;28;20189;-74
2021/11/19 02:36:50;;;;;;;9.50;8.40;;;1.40;99.90;;;;;;5014747;28;20242;-74
2021/11/19 02:39:28;;;;;;;9.50;8.53;;;1.40;99.90;;;;;;5016172;28;20167;-74
2021/11/19 02:41:59;;;;;;;11.57;8.90;;;1.40;99.90;;;;;;5014795;28;20261;-73
2021/11/19 02:44:27;;;;;;;12.00;9.47;;;1.40;99.90;;;;;;5014666;28;20241;-74
2021/11/19 02:46:59;;;;;;;12.43;8.80;;;1.40;99.90;;;;;;5015932;28;20183;-74
2021/11/19 02:49:26;;;;;;;10.63;8.57;;;1.30;99.90;;;;;;5014246;28;20194;-74
2021/11/19 02:51:52;;;;;;;12.10;9.60;;;1.00;99.90;;;;;;5016172;28;20179;-74
2021/11/19 02:54:21;;;;;;;13.10;9.03;;;0.80;99.90;;;;;;5015614;28;20596;-74
2021/11/19 02:56:48;;;;;;;9.77;8.77;;;0.60;99.90;;;;;;5015738;28;20293;-73
2021/11/19 02:59:16;;;;;;;11.90;9.97;;;0.60;99.90;;;;;;5015557;28;20210;-73
2021/11/19 03:01:55;;;;;;;9.83;8.07;;;0.50;99.90;;;;;;5011026;28;20186;-73
2021/11/19 03:04:33;;;;;;;9.33;8.30;;;0.60;99.90;;;;;;5013744;28;20182;-74
2021/11/19 03:06:59;;;;;;;9.67;8.00;;;0.60;99.90;;;;;;4995903;28;20206;-73
2021/11/19 03:09:33;;;;;;;10.40;9.23;;;0.80;99.90;;;;;;4994617;28;20561;-74
2021/11/19 03:12:00;;;;;;;12.33;9.37;;;0.80;99.90;;;;;;4996065;28;20172;-73
2021/11/19 03:14:27;;;;;;;10.93;8.33;;;1.30;99.90;;;;;;4995731;28;20269;-75
2021/11/19 03:16:54;;;;;;;10.67;8.33;;;0.80;99.90;;;;;;4994445;28;20199;-74
2021/11/19 03:19:20;;;;;;;9.23;8.27;;;0.70;99.90;;;;;;4994470;28;20186;-74
2021/11/19 03:21:46;;;;;;;9.67;8.57;;;0.70;99.90;;;;;;4994395;28;20203;-74
2021/11/19 03:24:13;;;;;;;12.13;10.10;;;0.60;99.90;;;;;;4995652;28;20179;-75
2021/11/19 03:26:39;;;;;;;12.97;9.67;;;0.50;99.90;;;;;;5007211;28;20214;-74
2021/11/19 03:29:07;;;;;;;13.10;9.57;;;0.40;99.90;;;;;;5009434;28;20191;-74
2021/11/19 03:31:33;;;;;;;13.00;9.53;;;0.40;99.90;;;;;;5011832;28;20278;-75
2021/11/19 03:34:00;;;;;;;11.90;9.70;;;0.30;99.90;;;;;;5011688;28;20186;-75
2021/11/19 03:36:26;;;;;;;10.70;7.87;;;0.40;99.90;;;;;;5014244;28;20297;-74
2021/11/19 03:38:55;;;;;;;11.33;8.90;;;0.50;99.90;;;;;;5014998;28;20186;-74
2021/11/19 03:41:27;;;;;;;10.63;9.17;;;0.50;99.90;;;;;;5014936;28;20202;-74
2021/11/19 03:43:56;;;;;;;10.80;8.83;;;0.40;99.90;;;;;;5013943;28;20186;-74
2021/11/19 03:46:27;;;;;;;13.27;9.97;;;0.20;99.90;;;;;;5014675;28;20314;-74
2021/11/19 03:48:53;;;;;;;20.23;14.60;;;0.20;99.90;;;;;;5014728;28;20193;-74
2021/11/19 03:51:25;;;;;;;18.70;13.93;;;0.10;99.90;;;;;;5014716;28;20548;-74
2021/11/19 03:53:51;;;;;;;11.77;9.40;;;0.10;99.90;;;;;;5013388;28;20187;-74
2021/11/19 03:56:18;;;;;;;12.50;9.90;;;0.30;99.90;;;;;;5013185;28;20406;-74
2021/11/19 03:58:44;;;;;;;12.73;9.53;;;0.30;99.90;;;;;;5014561;28;20179;-75
2021/11/19 04:01:28;;;;;;;11.23;10.03;;;0.20;99.90;;;;;;5013900;28;20179;-74
2021/11/19 04:03:54;;;;;;;14.50;9.87;;;0.20;99.90;;;;;;5014458;28;20186;-74
2021/11/19 04:06:22;;;;;;;12.23;9.07;;;0.20;99.90;;;;;;5014426;28;20206;-74
2021/11/19 04:08:49;;;;;;;11.27;9.23;;;0.20;99.90;;;;;;5014394;28;20240;-74
2021/11/19 04:11:16;;;;;;;14.13;10.07;;;0.10;99.90;;;;;;5011184;28;20644;-74
2021/11/19 04:13:43;;;;;;;15.93;10.93;;;0.20;99.90;;;;;;5002583;28;20195;-74
2021/11/19 04:16:18;;;;;;;16.40;10.63;;;0.20;99.90;;;;;;4994527;28;20211;-74
2021/11/19 04:18:44;;;;;;;13.00;10.23;;;0.20;99.90;;;;;;5010928;28;20194;-74
2021/11/19 04:21:11;;;;;;;16.53;11.13;;;0.40;99.90;;;;;;5014012;28;20183;-74
2021/11/19 04:23:38;;;;;;;16.43;10.20;;;0.30;99.90;;;;;;5012802;28;20175;-74
2021/11/19 04:26:06;;;;;;;25.60;11.77;;;0.40;99.90;;;;;;5013861;28;20203;-74
2021/11/19 04:28:32;;;;;;;20.50;11.57;;;0.40;99.90;;;;;;5014059;28;20183;-74
2021/11/19 04:30:58;;;;;;;26.13;13.33;;;0.40;99.90;;;;;;5014195;28;20656;-74
2021/11/19 04:33:25;;;;;;;29.47;13.67;;;0.40;99.90;;;;;;5013965;28;20183;-74
2021/11/19 04:35:54;;;;;;;34.43;13.87;;;0.30;99.90;;;;;;5012185;28;20693;-74
2021/11/19 04:38:22;;;;;;;31.70;14.20;;;0.40;99.90;;;;;;5013752;28;20213;-75
2021/11/19 04:40:48;;;;;;;35.73;13.70;;;0.50;99.90;;;;;;5013796;28;20186;-74
2021/11/19 04:43:15;;;;;;;38.23;13.90;;;0.50;99.90;;;;;;5013950;28;20190;-74
2021/11/19 04:45:41;;;;;;;54.37;16.67;;;0.50;99.90;;;;;;5012331;28;20229;-74
2021/11/19 04:48:07;;;;;;;60.67;16.17;;;0.50;99.90;;;;;;5013704;28;20297;-74
2021/11/19 04:50:36;;;;;;;39.30;15.63;;;0.50;99.90;;;;;;5013644;28;20265;-74
2021/11/19 04:53:04;;;;;;;40.43;17.10;;;0.50;99.90;;;;;;5005764;28;20266;-74
2021/11/19 04:55:30;;;;;;;37.40;16.40;;;0.60;99.90;;;;;;4993960;28;20203;-74
2021/11/19 04:57:57;;;;;;;38.50;16.00;;;0.80;99.90;;;;;;4996694;28;20180;-74
2021/11/19 05:00:32;;;;;;;35.37;16.77;;;0.90;99.90;;;;;;4993876;28;20185;-76
2021/11/19 05:02:57;;;;;;;39.70;16.77;;;1.00;99.90;;;;;;5011734;28;20309;-74
2021/11/19 05:05:25;;;;;;;33.27;16.47;;;1.10;99.90;;;;;;5011312;28;20237;-74
2021/11/19 05:07:51;;;;;;;25.90;13.33;;;1.20;99.90;;;;;;4993197;28;20187;-75
2021/11/19 05:10:17;;;;;;;31.90;14.97;;;1.30;99.90;;;;;;4991920;28;20183;-75
2021/11/19 05:12:50;;;;;;;28.43;13.07;;;1.30;99.90;;;;;;4992976;28;20511;-73
2021/11/19 05:15:16;;;;;;;26.53;13.43;;;1.40;99.90;;;;;;5010993;28;20256;-74
2021/11/19 05:17:42;;;;;;;24.20;12.47;;;1.40;99.90;;;;;;4999379;28;20188;-75
2021/11/19 05:20:10;;;;;;;26.20;13.97;;;1.50;99.90;;;;;;4992300;28;20319;-75
2021/11/19 05:22:37;;;;;;;39.50;14.83;;;1.50;99.90;;;;;;4992401;28;20721;-74
2021/11/19 05:25:09;;;;;;;35.80;15.17;;;1.50;99.90;;;;;;4993554;28;20320;-74
2021/11/19 05:27:35;;;;;;;36.33;14.83;;;1.50;99.90;;;;;;4993613;28;20222;-74
2021/11/19 05:30:02;;;;;;;30.40;14.13;;;1.40;99.90;;;;;;4993557;28;20579;-75
2021/11/19 05:32:28;;;;;;;26.80;13.40;;;1.50;99.90;;;;;;4993803;28;20222;-74
2021/11/19 05:34:53;;;;;;;26.77;13.67;;;1.40;99.90;;;;;;4993288;28;20219;-74
2021/11/19 05:37:19;;;;;;;31.40;13.17;;;1.50;99.90;;;;;;4993530;28;20549;-74
2021/11/19 05:39:45;;;;;;;20.27;12.47;;;1.40;99.90;;;;;;4993403;28;20176;-75
2021/11/19 05:42:10;;;;;;;25.63;12.40;;;1.40;99.90;;;;;;4993456;28;20183;-75
2021/11/19 05:44:40;;;;;;;38.57;13.30;;;1.50;99.90;;;;;;4992297;28;20203;-75
2021/11/19 05:47:07;;;;;;;25.03;13.10;;;1.40;99.90;;;;;;4993125;28;20184;-74
2021/11/19 05:49:33;;;;;;;35.33;13.57;;;1.40;99.90;;;;;;4999360;28;20178;-75
2021/11/19 05:52:00;;;;;;;26.87;13.73;;;1.30;99.90;;;;;;5010159;28;20187;-75
2021/11/19 05:54:28;;;;;;;30.57;14.10;;;1.20;99.90;;;;;;5012178;28;20645;-75
2021/11/19 05:56:54;;;;;;;57.63;14.23;;;1.20;99.90;;;;;;5012003;28;20685;-75
2021/11/19 05:59:20;;;;;;;72.67;16.83;;;1.00;99.90;;;;;;5014593;28;20258;-75
2021/11/19 06:01:46;;;;;;;33.43;15.37;;;0.90;99.90;;;;;;5009249;28;20171;-75
2021/11/19 06:04:12;;;;;;;29.97;15.33;;;1.50;99.90;;;;;;5008677;28;20187;-75
2021/11/19 06:06:38;;;;;;;31.97;15.17;;;1.00;99.90;;;;;;4992324;28;20220;-74
2021/11/19 06:09:06;;;;;;;47.50;15.63;;;1.10;99.90;;;;;;4992402;28;20182;-75
2021/11/19 06:11:38;;;;;;;63.47;16.07;;;1.20;99.90;;;;;;4992430;28;20610;-74
2021/11/19 06:14:08;;;;;;;75.40;16.93;;;1.30;99.90;;;;;;4999877;28;20175;-74
2021/11/19 06:16:45;;;;;;;50.53;16.37;;;1.10;99.90;;;;;;5011725;28;20207;-74
2021/11/19 06:19:15;;;;;;;45.13;16.17;;;1.00;99.90;;;;;;5011828;28;20206;-76
2021/11/19 06:21:47;;;;;;;31.63;14.47;;;0.90;99.90;;;;;;5010496;28;20194;-75
2021/11/19 06:24:26;;;;;;;39.77;15.23;;;1.10;99.90;;;;;;4997409;28;20234;-75
2021/11/19 06:26:51;;;;;;;34.27;14.97;;;1.20;99.90;;;;;;4998850;28;20278;-75
2021/11/19 06:29:17;;;;;;;34.83;15.33;;;1.20;99.90;;;;;;4996334;28;20270;-75
2021/11/19 06:31:46;;;;;;;36.57;15.73;;;1.40;99.90;;;;;;5014437;28;20190;-76
2021/11/19 06:34:13;;;;;;;51.20;16.30;;;1.50;99.90;;;;;;5015761;28;20179;-74
2021/11/19 06:36:41;;;;;;;28.37;14.53;;;1.50;99.90;;;;;;5015408;28;20281;-76
2021/11/19 06:39:08;;;;;;;32.67;16.73;;;1.50;99.90;;;;;;5016159;28;20175;-75
2021/11/19 06:41:34;;;;;;;44.83;16.97;;;1.50;99.90;;;;;;5016127;28;20198;-74
2021/11/19 06:44:00;;;;;;;37.77;16.73;;;1.60;99.90;;;;;;5015524;28;20602;-75
2021/11/19 06:46:26;;;;;;;53.73;20.63;;;1.60;99.90;;;;;;5013972;28;20241;-75
2021/11/19 06:48:52;;;;;;;37.40;17.10;;;1.60;99.90;;;;;;5011057;28;20203;-74
2021/11/19 06:51:20;;;;;;;34.23;16.40;;;1.60;99.90;;;;;;5015460;28;20336;-74
2021/11/19 06:53:47;;;;;;;35.13;16.40;;;1.70;99.90;;;;;;5015536;28;20186;-76
2021/11/19 06:56:14;;;;;;;34.43;15.63;;;1.70;99.90;;;;;;5015341;28;20220;-75
2021/11/19 06:58:40;;;;;;;27.87;14.57;;;1.80;99.90;;;;;;5015699;28;20554;-75
2021/11/19 07:01:06;;;;;;;40.07;16.77;;;1.80;99.90;;;;;;5015598;28;20179;-74
2021/11/19 07:03:32;;;;;;;67.03;18.63;;;1.80;99.90;;;;;;5015517;28;20187;-73
2021/11/19 07:05:58;;;;;;;58.83;17.33;;;1.90;99.90;;;;;;5011987;28;20210;-75
2021/11/19 07:08:24;;;;;;;66.60;18.23;;;1.70;99.90;;;;;;5012414;28;20237;-76
2021/11/19 07:10:54;;;;;;;55.40;19.00;;;1.60;99.90;;;;;;5014244;28;20214;-75
2021/11/19 07:13:20;;;;;;;49.10;19.17;;;1.60;99.90;;;;;;5015191;28;20245;-75
2021/11/19 07:15:46;;;;;;;42.30;17.03;;;1.70;99.90;;;;;;5014675;28;20305;-76
2021/11/19 07:18:12;;;;;;;91.60;19.80;;;1.70;99.90;;;;;;5015182;28;20191;-75
2021/11/19 07:20:38;;;;;;;72.23;18.40;;;1.70;99.90;;;;;;5014969;28;20187;-75
2021/11/19 07:23:04;;;;;;;70.33;19.30;;;1.70;99.90;;;;;;5007075;28;20206;-76
2021/11/19 07:25:32;;;;;;;94.17;20.33;;;1.60;99.90;;;;;;5013662;28;20670;-75
2021/11/19 07:27:59;;;;;;;108.97;19.60;;;1.60;99.90;;;;;;5010161;28;20187;-75
2021/11/19 07:30:32;;;;;;;81.10;18.90;;;1.50;99.90;;;;;;5014516;28;20202;-75
2021/11/19 07:32:58;;;;;;;67.43;22.30;;;1.50;99.90;;;;;;5015171;28;20592;-75
2021/11/19 07:35:23;;;;;;;52.87;21.10;;;1.50;99.90;;;;;;5012546;28;20245;-75
2021/11/19 07:37:50;;;;;;;61.90;22.13;;;1.70;99.90;;;;;;5013744;28;20187;-75
2021/11/19 07:40:20;;;;;;;81.87;22.03;;;1.70;99.90;;;;;;5012378;28;20210;-75
2021/11/19 07:42:46;;;;;;;91.30;25.67;;;1.70;99.90;;;;;;5013844;28;20183;-75
2021/11/19 07:45:13;;;;;;;76.80;26.03;;;1.60;99.90;;;;;;5013084;28;20196;-75
2021/11/19 07:47:39;;;;;;;61.73;23.50;;;1.70;99.90;;;;;;5012569;28;20183;-75
2021/11/19 07:50:08;;;;;;;53.07;21.43;;;1.90;99.90;;;;;;5038486;23;20177;-77
2021/11/19 07:52:34;;;;;;;50.20;21.40;;;1.90;99.90;;;;;;5027326;28;20281;-79
2021/11/19 07:55:00;;;;;;;48.03;21.93;;;2.80;99.90;;;;;;5025317;28;20171;-79
2021/11/19 07:57:25;;;;;;;63.67;21.13;;;2.00;99.90;;;;;;5024353;28;20180;-79
2021/11/19 07:59:51;;;;;;;39.30;19.30;;;3.00;99.90;;;;;;5017166;28;20175;-79
2021/11/19 08:02:17;;;;;;;96.53;19.90;;;3.00;99.90;;;;;;5027562;28;20261;-79
2021/11/19 08:04:42;;;;;;;35.73;17.87;;;2.10;99.90;;;;;;5029319;28;20183;-79
2021/11/19 08:07:08;;;;;;;74.93;17.83;;;2.80;99.90;;;;;;5029663;28;20233;-79
2021/11/19 08:09:35;;;;;;;64.30;17.40;;;3.10;99.90;;;;;;5029172;28;20180;-79
2021/11/19 08:12:01;;;;;;;27.73;16.57;;;2.90;99.90;;;;;;5025630;28;20632;-78
2021/11/19 08:14:27;;;;;;;34.90;17.80;;;2.90;99.90;;;;;;5031838;28;20208;-79
2021/11/19 08:17:01;;;;;;;33.37;17.03;;;2.70;99.90;;;;;;5026215;28;20206;-78
2021/11/19 08:19:30;;;;;;;28.53;17.27;;;2.20;99.90;;;;;;5025060;28;20187;-79
2021/11/19 08:21:59;;;;;;;30.63;17.87;;;2.20;99.90;;;;;;5026599;28;20198;-79
2021/11/19 08:24:26;;;;;;;27.17;15.67;;;3.00;99.90;;;;;;5029003;28;20179;-79
2021/11/19 08:26:57;;;;;;;50.90;16.27;;;3.20;99.90;;;;;;5023295;28;20178;-78
2021/11/19 08:29:26;;;;;;;27.83;15.90;;;3.30;99.90;;;;;;5027517;28;20201;-78
2021/11/19 08:31:54;;;;;;;25.80;16.23;;;3.40;99.90;;;;;;5018606;28;20603;-79
2021/11/19 08:34:20;;;;;;;21.17;14.90;;;2.90;99.90;;;;;;5022446;28;20548;-78
2021/11/19 08:36:46;;;;;;;31.27;17.53;;;3.50;99.90;;;;;;5027123;28;20203;-79
2021/11/19 08:39:17;;;;;;;25.27;16.43;;;3.40;99.90;;;;;;5023054;28;20180;-79
2021/11/19 08:41:43;;;;;;;22.57;15.43;;;3.00;99.90;;;;;;5018619;28;20221;-79
2021/11/19 08:44:09;;;;;;;60.30;20.23;;;2.40;99.90;;;;;;5037313;28;20190;-78
2021/11/19 08:46:44;;;;;;;66.13;21.53;;;3.10;99.90;;;;;;5030494;28;20184;-78
2021/11/19 08:49:13;;;;;;;50.40;21.00;;;2.10;99.90;;;;;;5025184;28;20182;-78
2021/11/19 08:51:40;;;;;;;105.57;22.43;;;3.10;99.90;;;;;;5026056;28;20697;-79
2021/11/19 08:54:08;;;;;;;63.43;20.20;;;2.10;99.90;;;;;;5022098;28;20683;-79
2021/11/19 08:56:39;;;;;;;45.17;21.13;;;3.00;99.90;;;;;;5034628;28;20707;-78
2021/11/19 08:59:07;;;;;;;39.83;18.07;;;2.10;99.90;;;;;;5031700;28;20262;-78
2021/11/19 09:01:33;;;;;;;44.23;18.87;;;2.30;99.90;;;;;;5018050;28;20206;-78
2021/11/19 09:03:59;;;;;;;43.07;19.90;;;3.20;99.90;;;;;;5024278;28;20183;-77
2021/11/19 09:06:25;;;;;;;61.07;20.10;;;3.10;99.90;;;;;;5022382;28;20642;-78
2021/11/19 09:08:51;;;;;;;60.03;20.60;;;2.30;99.90;;;;;;5026367;28;20561;-78
2021/11/19 09:11:23;;;;;;;45.90;20.17;;;2.90;99.90;;;;;;5029629;28;20194;-77
2021/11/19 09:13:52;;;;;;;62.53;23.57;;;2.90;99.90;;;;;;5022586;28;20186;-77
2021/11/19 09:16:20;;;;;;;40.23;19.87;;;2.20;99.90;;;;;;5017409;28;20230;-77
2021/11/19 09:19:05;;;;;;;30.40;18.83;;;3.30;99.90;;;;;;5013307;28;20187;-77
2021/11/19 09:21:56;;;;;;;30.40;18.73;;;2.30;99.90;;;;;;5018812;28;20599;-78
2021/11/19 09:24:25;;;;;;;29.53;18.27;;;1.90;99.90;;;;;;5029978;28;20185;-77
2021/11/19 09:26:54;;;;;;;30.40;18.40;;;2.30;99.90;;;;;;5027579;28;20171;-78
2021/11/19 09:29:42;;;;;;;31.30;18.40;;;2.40;99.90;;;;;;5026797;28;20237;-77
2021/11/19 09:32:09;;;;;;;28.30;16.40;;;2.60;99.90;;;;;;5031397;28;20196;-78
2021/11/19 09:34:38;;;;;;;26.03;17.00;;;3.00;99.90;;;;;;5015255;28;20175;-78
2021/11/19 09:37:06;;;;;;;25.57;16.33;;;2.70;99.90;;;;;;5028501;28;20266;-78
2021/11/19 09:39:32;;;;;;;27.07;16.50;;;2.60;99.90;;;;;;5019356;28;20187;-78
2021/11/19 09:42:16;;;;;;;40.33;15.87;;;3.10;99.90;;;;;;5014108;28;20191;-77
2021/11/19 09:45:15;;;;;;;25.20;15.50;;;1.80;99.90;;;;;;5017885;28;20530;-77
2021/11/19 09:48:26;;;;;;;52.87;17.53;;;2.70;99.90;;;;;;5034138;28;20199;-77
2021/11/19 09:51:10;;;;;;;33.80;19.30;;;2.40;99.90;;;;;;5026346;28;20217;-77
2021/11/19 09:54:27;;;;;;;32.40;19.17;;;3.20;99.90;;;;;;5019504;28;20518;-78
2021/11/19 09:57:04;;;;;;;36.50;21.70;;;2.50;99.90;;;;;;5000296;28;20573;-78
2021/11/19 09:59:36;;;;;;;33.57;19.27;;;2.20;99.90;;;;;;5036743;28;20179;-78
2021/11/19 10:02:11;;;;;;;32.63;19.77;;;3.50;99.90;;;;;;5037710;28;20199;-78
2021/11/19 10:04:57;;;;;;;43.73;21.67;;;1.60;99.90;;;;;;5032379;28;20190;-77
2021/11/19 10:07:56;;;;;;;37.50;20.43;;;3.30;99.90;;;;;;5035322;28;20187;-78
2021/11/19 10:10:47;;;;;;;34.40;19.30;;;2.60;99.90;;;;;;5024030;28;20198;-77
2021/11/19 10:13:27;;;;;;;41.23;22.87;;;1.60;99.90;;;;;;5034420;28;20206;-77
2021/11/19 10:16:02;;;;;;;37.43;20.17;;;2.20;99.90;;;;;;5031412;28;20226;-77
2021/11/19 10:18:52;;;;;;;39.97;21.13;;;3.60;99.90;;;;;;5018619;28;20174;-77
2021/11/19 10:21:26;;;;;;;32.77;19.20;;;2.70;99.90;;;;;;5017527;28;20236;-78
2021/11/19 10:23:56;;;;;;;37.33;20.00;;;2.70;99.90;;;;;;5025907;28;20171;-77
2021/11/19 10:26:33;;;;;;;34.30;19.93;;;2.70;99.90;;;;;;5028339;28;20549;-77
2021/11/19 10:29:07;;;;;;;37.47;21.93;;;2.90;99.90;;;;;;5031152;28;20170;-77
2021/11/19 10:31:34;;;;;;;30.80;18.93;;;3.00;99.90;;;;;;5025874;28;20199;-77
2021/11/19 10:34:24;;;;;;;34.43;20.13;;;2.50;99.90;;;;;;5019604;28;20184;-78
2021/11/19 10:37:29;;;;;;;35.10;20.10;;;3.10;99.90;;;;;;5030613;28;20196;-78
2021/11/19 10:40:15;;;;;;;34.47;20.30;;;3.20;99.90;;;;;;5030813;28;20170;-78
2021/11/19 10:43:19;;;;;;;44.07;22.33;;;3.70;99.90;;;;;;5016389;28;20203;-78
2021/11/19 10:45:56;;;;;;;34.03;18.60;;;3.00;99.90;;;;;;5028765;28;20542;-78
2021/11/19 10:48:51;;;;;;;30.73;18.60;;;3.20;99.90;;;;;;5018748;28;20180;-77
2021/11/19 10:51:59;;;;;;;31.87;20.17;;;3.30;99.90;;;;;;5019391;28;20227;-76
2021/11/19 10:54:35;;;;;;;30.17;17.83;;;3.00;99.90;;;;;;5024250;28;20180;-77
2021/11/19 10:57:19;;;;;;;38.23;19.30;;;3.10;99.90;;;;;;5026241;28;20233;-77
2021/11/19 11:00:07;;;;;;;30.30;18.10;;;3.30;99.90;;;;;;5017771;28;20712;-77
2021/11/19 11:02:39;;;;;;;33.70;19.83;;;3.90;99.90;;;;;;5017264;28;20199;-77
2021/11/19 11:05:35;;;;;;;34.40;19.50;;;3.00;99.90;;;;;;5032558;28;20176;-77
2021/11/19 11:08:13;;;;;;;40.40;22.47;;;3.50;99.90;;;;;;5033654;28;20275;-78
2021/11/19 11:10:56;;;;;;;41.60;22.63;;;4.40;99.90;;;;;;5019970;28;20219;-78
2021/11/19 11:13:24;;;;;;;43.00;23.40;;;3.40;99.90;;;;;;5016961;28;20183;-78
2021/11/19 11:16:15;;;;;;;41.73;22.63;;;3.40;99.90;;;;;;5034523;28;20583;-77
2021/11/19 11:18:56;;;;;;;41.17;23.57;;;3.40;99.90;;;;;;5035583;28;20163;-78
2021/11/19 11:21:36;;;;;;;44.53;23.93;;;3.40;99.90;;;;;;5036423;28;20190;-77
2021/11/19 11:24:34;;;;;;;48.97;25.03;;;3.40;99.90;;;;;;5022038;28;20167;-78
2021/11/19 11:27:11;;;;;;;49.13;23.60;;;3.20;99.90;;;;;;5004427;28;20214;-77
2021/11/19 11:29:51;;;;;;;45.87;24.10;;;3.40;99.90;;;;;;5016010;28;20711;-78
2021/11/19 11:32:48;;;;;;;50.80;26.93;;;3.60;99.90;;;;;;5016341;28;20235;-78
2021/11/19 11:35:34;;;;;;;45.53;26.13;;;3.10;99.90;;;;;;5023264;28;20548;-77
2021/11/19 11:38:14;;;;;;;40.67;23.13;;;3.00;99.90;;;;;;5035613;28;20165;-78
2021/11/19 11:40:49;;;;;;;40.43;22.00;;;3.80;99.90;;;;;;5033688;28;20208;-78
2021/11/19 11:43:27;;;;;;;36.90;19.97;;;3.90;99.90;;;;;;5023322;28;20186;-78
2021/11/19 11:46:16;;;;;;;32.03;19.07;;;3.90;99.90;;;;;;5022380;28;20184;-77
2021/11/19 11:49:20;;;;;;;34.40;20.27;;;4.00;99.90;;;;;;5020414;28;20172;-78
2021/11/19 11:52:19;;;;;;;39.27;23.03;;;3.60;99.90;;;;;;5031982;28;20236;-78
2021/11/19 11:55:09;;;;;;;42.77;22.90;;;4.10;99.90;;;;;;5022340;28;20244;-78
2021/11/19 11:57:43;;;;;;;47.07;24.67;;;4.10;99.90;;;;;;5016254;28;20537;-78
2021/11/19 12:00:35;;;;;;;59.37;29.37;;;4.10;99.90;;;;;;5016904;28;20315;-78
2021/11/19 12:03:19;;;;;;;49.13;25.27;;;4.20;99.90;;;;;;5016515;28;20152;-78
2021/11/19 12:06:10;;;;;;;35.80;20.67;;;4.70;99.90;;;;;;5023494;28;20643;-78
2021/11/19 12:08:54;;;;;;;33.30;20.77;;;4.00;99.90;;;;;;5028384;28;20173;-78
2021/11/19 12:11:45;;;;;;;30.13;19.33;;;4.10;99.90;;;;;;5020514;28;20200;-78
2021/11/19 12:14:20;;;;;;;24.10;16.07;;;4.20;99.90;;;;;;5029406;28;20222;-78
2021/11/19 12:17:03;;;;;;;23.43;15.50;;;4.20;99.90;;;;;;5037942;28;20203;-78
2021/11/19 12:19:51;;;;;;;39.00;21.60;;;4.30;99.90;;;;;;5017997;28;20177;-78
2021/11/19 12:22:26;;;;;;;39.87;22.97;;;4.30;99.90;;;;;;5027132;28;20192;-78
2021/11/19 12:24:54;;;;;;;32.53;19.70;;;4.50;99.90;;;;;;5017103;28;20667;-77
2021/11/19 12:27:37;;;;;;;30.53;18.77;;;4.30;99.90;;;;;;5023363;28;20646;-78
2021/11/19 12:30:18;;;;;;;29.50;18.17;;;4.30;99.90;;;;;;5025799;28;20189;-78
2021/11/19 12:32:54;;;;;;;38.50;22.70;;;4.40;99.90;;;;;;5030581;28;20206;-77
2021/11/19 12:35:31;;;;;;;34.17;20.10;;;4.40;99.90;;;;;;5030840;28;20261;-77
2021/11/19 12:38:13;;;;;;;34.97;21.07;;;4.30;99.90;;;;;;5025644;28;20170;-78
2021/11/19 12:41:04;;;;;;;36.70;21.00;;;4.30;99.90;;;;;;5020579;28;20223;-78
2021/11/19 12:44:03;;;;;;;38.23;22.90;;;5.10;99.90;;;;;;5027803;28;20180;-77
2021/11/19 12:47:05;;;;;;;45.20;23.60;;;4.80;99.90;;;;;;5025673;28;20177;-78
2021/11/19 12:50:05;;;;;;;38.30;21.80;;;4.60;99.90;;;;;;5025436;28;20187;-77
2021/11/19 12:52:53;;;;;;;31.53;21.07;;;4.40;99.90;;;;;;5025300;28;20188;-78
2021/11/19 12:55:34;;;;;;;46.33;26.23;;;4.40;99.90;;;;;;5026280;28;20177;-78
2021/11/19 12:58:24;;;;;;;45.70;25.73;;;3.70;99.90;;;;;;5034502;28;20262;-78
2021/11/19 13:00:55;;;;;;;39.37;22.93;;;4.40;99.90;;;;;;5034916;28;20198;-78
2021/11/19 13:03:45;;;;;;;33.90;21.37;;;4.60;99.90;;;;;;5032434;28;20175;-78
2021/11/19 13:06:39;;;;;;;27.10;17.87;;;4.50;99.90;;;;;;5036270;28;20219;-78
2021/11/19 13:09:14;;;;;;;28.73;18.90;;;4.70;99.90;;;;;;5038315;28;20182;-79